sensor_id;sensor_type;location;lat;lon;timestamp;temperature;humidity
22436;DHT22;11385;50.822;4.324;2022-08-18T00:02:15;20.80;99.90
22436;DHT22;11385;50.822;4.324;2022-08-18T00:04:43;20.40;99.90
22436;DHT22;11385;50.822;4.324;2022-08-18T00:07:12;20.50;99.90
22436;DHT22;11385;50.822;4.324;2022-08-18T00:09:40;20.70;99.90
22436;DHT22;11385;50.822;4.324;2022-08-18T00:12:14;20.80;99.90
22436;DHT22;11385;50.822;4.324;2022-08-18T00:14:41;20.90;99.90
22436;DHT22;11385;50.822;4.324;2022-08-18T00:17:08;20.70;99.90
22436;DHT22;11385;50.822;4.324;2022-08-18T00:19:35;20.80;99.90
22436;DHT22;11385;50.822;4.324;2022-08-18T00:22:01;20.60;99.90
22436;DHT22;11385;50.822;4.324;2022-08-18T00:24:28;20.50;99.90
22436;DHT22;11385;50.822;4.324;2022-08-18T00:26:56;20.60;99.90
22436;DHT22;11385;50.822;4.324;2022-08-18T00:29:24;20.60;99.90
22436;DHT22;11385;50.822;4.324;2022-08-18T00:31:50;20.70;99.90
22436;DHT22;11385;50.822;4.324;2022-08-18T00:34:17;20.60;99.90
22436;DHT22;11385;50.822;4.324;2022-08-18T00:36:44;20.60;99.90
22436;DHT22;11385;50.822;4.324;2022-08-18T00:39:11;20.60;99.90
22436;DHT22;11385;50.822;4.324;2022-08-18T00:41:38;20.60;99.90
22436;DHT22;11385;50.822;4.324;2022-08-18T00:44:04;20.70;99.90
22436;DHT22;11385;50.822;4.324;2022-08-18T00:46:33;20.60;99.90
22436;DHT22;11385;50.822;4.324;2022-08-18T00:49:01;20.70;99.90
22436;DHT22;11385;50.822;4.324;2022-08-18T00:51:38;20.70;99.90
22436;DHT22;11385;50.822;4.324;2022-08-18T00:54:11;20.70;99.90
22436;DHT22;11385;50.822;4.324;2022-08-18T00:56:38;20.80;99.90
22436;DHT22;11385;50.822;4.324;2022-08-18T00:59:10;20.90;99.90
22436;DHT22;11385;50.822;4.324;2022-08-18T01:01:38;20.80;99.90
22436;DHT22;11385;50.822;4.324;2022-08-18T01:04:13;20.70;99.90
22436;DHT22;11385;50.822;4.324;2022-08-18T01:06:54;20.80;99.90
22436;DHT22;11385;50.822;4.324;2022-08-18T01:09:21;20.70;99.90
22436;DHT22;11385;50.822;4.324;2022-08-18T01:11:48;20.70;99.90
22436;DHT22;11385;50.822;4.324;2022-08-18T01:14:16;20.70;99.90
22436;DHT22;11385;50.822;4.324;2022-08-18T01:16:47;20.80;99.90
22436;DHT22;11385;50.822;4.324;2022-08-18T01:19:21;20.60;99.90
22436;DHT22;11385;50.822;4.324;2022-08-18T01:21:59;20.70;99.90
22436;DHT22;11385;50.822;4.324;2022-08-18T01:24:29;20.70;99.90
22436;DHT22;11385;50.822;4.324;2022-08-18T01:27:02;20.80;99.90
22436;DHT22;11385;50.822;4.324;2022-08-18T01:29:29;20.70;99.90
22436;DHT22;11385;50.822;4.324;2022-08-18T01:31:57;20.70;99.90
22436;DHT22;11385;50.822;4.324;2022-08-18T01:34:25;20.80;99.90
22436;DHT22;11385;50.822;4.324;2022-08-18T01:36:53;20.90;99.90
22436;DHT22;11385;50.822;4.324;2022-08-18T01:39:21;20.90;99.90
22436;DHT22;11385;50.822;4.324;2022-08-18T01:41:48;20.90;99.90
22436;DHT22;11385;50.822;4.324;2022-08-18T01:44:15;21.00;99.90
22436;DHT22;11385;50.822;4.324;2022-08-18T01:46:42;21.00;99.90
22436;DHT22;11385;50.822;4.324;2022-08-18T01:49:09;21.00;99.90
22436;DHT22;11385;50.822;4.324;2022-08-18T01:51:38;21.00;99.90
22436;DHT22;11385;50.822;4.324;2022-08-18T01:54:09;21.00;99.90
22436;DHT22;11385;50.822;4.324;2022-08-18T01:56:36;21.00;99.90
22436;DHT22;11385;50.822;4.324;2022-08-18T01:59:03;21.00;99.90
22436;DHT22;11385;50.822;4.324;2022-08-18T02:01:31;21.10;99.90
22436;DHT22;11385;50.822;4.324;2022-08-18T02:03:59;21.10;99.90
22436;DHT22;11385;50.822;4.324;2022-08-18T02:06:25;20.80;99.90
22436;DHT22;11385;50.822;4.324;2022-08-18T02:08:52;20.90;99.90
22436;DHT22;11385;50.822;4.324;2022-08-18T02:11:19;20.90;99.90
22436;DHT22;11385;50.822;4.324;2022-08-18T02:13:45;20.90;99.90
22436;DHT22;11385;50.822;4.324;2022-08-18T02:16:12;21.00;99.90
22436;DHT22;11385;50.822;4.324;2022-08-18T02:18:39;21.00;99.90
22436;DHT22;11385;50.822;4.324;2022-08-18T02:21:10;20.90;99.90
22436;DHT22;11385;50.822;4.324;2022-08-18T02:23:38;20.90;99.90
22436;DHT22;11385;50.822;4.324;2022-08-18T02:26:08;20.80;99.90
22436;DHT22;11385;50.822;4.324;2022-08-18T02:28:35;20.70;99.90
22436;DHT22;11385;50.822;4.324;2022-08-18T02:31:05;20.70;99.90
22436;DHT22;11385;50.822;4.324;2022-08-18T02:33:32;20.60;99.90
22436;DHT22;11385;50.822;4.324;2022-08-18T02:36:00;20.70;99.90
22436;DHT22;11385;50.822;4.324;2022-08-18T02:38:28;20.80;99.90
22436;DHT22;11385;50.822;4.324;2022-08-18T02:40:56;20.60;99.90
22436;DHT22;11385;50.822;4.324;2022-08-18T02:43:23;20.60;99.90
22436;DHT22;11385;50.822;4.324;2022-08-18T02:45:50;20.70;99.90
22436;DHT22;11385;50.822;4.324;2022-08-18T02:48:18;20.80;99.90
22436;DHT22;11385;50.822;4.324;2022-08-18T02:50:50;20.70;99.90
22436;DHT22;11385;50.822;4.324;2022-08-18T02:53:17;20.80;99.90
22436;DHT22;11385;50.822;4.324;2022-08-18T02:55:46;20.80;99.90
22436;DHT22;11385;50.822;4.324;2022-08-18T02:58:13;20.70;99.90
22436;DHT22;11385;50.822;4.324;2022-08-18T03:00:40;20.70;99.90
22436;DHT22;11385;50.822;4.324;2022-08-18T03:03:08;20.70;99.90
22436;DHT22;11385;50.822;4.324;2022-08-18T03:05:34;20.70;99.90
22436;DHT22;11385;50.822;4.324;2022-08-18T03:08:01;20.70;99.90
22436;DHT22;11385;50.822;4.324;2022-08-18T03:10:27;20.70;99.90
22436;DHT22;11385;50.822;4.324;2022-08-18T03:12:54;20.60;99.90
22436;DHT22;11385;50.822;4.324;2022-08-18T03:15:21;20.40;99.90
22436;DHT22;11385;50.822;4.324;2022-08-18T03:17:48;20.20;99.90
22436;DHT22;11385;50.822;4.324;2022-08-18T03:20:16;20.10;99.90
22436;DHT22;11385;50.822;4.324;2022-08-18T03:22:43;20.10;99.90
22436;DHT22;11385;50.822;4.324;2022-08-18T03:25:09;20.10;99.90
22436;DHT22;11385;50.822;4.324;2022-08-18T03:27:36;20.20;99.90
22436;DHT22;11385;50.822;4.324;2022-08-18T03:30:03;20.20;99.90
22436;DHT22;11385;50.822;4.324;2022-08-18T03:32:30;20.20;99.90
22436;DHT22;11385;50.822;4.324;2022-08-18T03:34:56;20.20;99.90
22436;DHT22;11385;50.822;4.324;2022-08-18T03:37:24;20.10;99.90
22436;DHT22;11385;50.822;4.324;2022-08-18T03:39:51;20.10;99.90
22436;DHT22;11385;50.822;4.324;2022-08-18T03:42:17;20.10;99.90
22436;DHT22;11385;50.822;4.324;2022-08-18T03:44:44;20.10;99.90
22436;DHT22;11385;50.822;4.324;2022-08-18T03:47:11;20.20;99.90
22436;DHT22;11385;50.822;4.324;2022-08-18T03:49:38;20.20;99.90
22436;DHT22;11385;50.822;4.324;2022-08-18T03:52:07;20.00;99.90
22436;DHT22;11385;50.822;4.324;2022-08-18T03:54:34;20.00;99.90
22436;DHT22;11385;50.822;4.324;2022-08-18T03:57:03;20.20;99.90
22436;DHT22;11385;50.822;4.324;2022-08-18T03:59:30;20.30;99.90
22436;DHT22;11385;50.822;4.324;2022-08-18T04:02:00;20.30;99.90
22436;DHT22;11385;50.822;4.324;2022-08-18T04:04:27;20.30;99.90
22436;DHT22;11385;50.822;4.324;2022-08-18T04:06:57;20.40;99.90
22436;DHT22;11385;50.822;4.324;2022-08-18T04:09:26;20.50;99.90
22436;DHT22;11385;50.822;4.324;2022-08-18T04:11:55;20.40;99.90
22436;DHT22;11385;50.822;4.324;2022-08-18T04:14:24;20.20;99.90
22436;DHT22;11385;50.822;4.324;2022-08-18T04:16:53;20.20;99.90
22436;DHT22;11385;50.822;4.324;2022-08-18T04:19:19;20.30;99.90
22436;DHT22;11385;50.822;4.324;2022-08-18T04:21:49;20.40;99.90
22436;DHT22;11385;50.822;4.324;2022-08-18T04:24:17;20.60;99.90
22436;DHT22;11385;50.822;4.324;2022-08-18T04:26:46;20.50;99.90
22436;DHT22;11385;50.822;4.324;2022-08-18T04:29:16;20.30;99.90
22436;DHT22;11385;50.822;4.324;2022-08-18T04:31:43;20.30;99.90
22436;DHT22;11385;50.822;4.324;2022-08-18T04:34:10;20.30;99.90
22436;DHT22;11385;50.822;4.324;2022-08-18T04:36:37;20.40;99.90
22436;DHT22;11385;50.822;4.324;2022-08-18T04:39:06;20.50;99.90
22436;DHT22;11385;50.822;4.324;2022-08-18T04:41:34;20.60;99.90
22436;DHT22;11385;50.822;4.324;2022-08-18T04:44:04;20.60;99.90
22436;DHT22;11385;50.822;4.324;2022-08-18T04:46:34;20.70;99.90
22436;DHT22;11385;50.822;4.324;2022-08-18T04:49:02;20.70;99.90
22436;DHT22;11385;50.822;4.324;2022-08-18T04:51:29;20.70;99.90
22436;DHT22;11385;50.822;4.324;2022-08-18T04:53:56;20.60;99.90
22436;DHT22;11385;50.822;4.324;2022-08-18T04:56:29;20.40;99.90
22436;DHT22;11385;50.822;4.324;2022-08-18T04:59:05;20.50;99.90
22436;DHT22;11385;50.822;4.324;2022-08-18T05:01:37;20.50;99.90
22436;DHT22;11385;50.822;4.324;2022-08-18T05:04:05;20.10;99.90
22436;DHT22;11385;50.822;4.324;2022-08-18T05:06:32;20.20;99.90
22436;DHT22;11385;50.822;4.324;2022-08-18T05:09:01;20.20;99.90
22436;DHT22;11385;50.822;4.324;2022-08-18T05:11:29;20.40;99.90
22436;DHT22;11385;50.822;4.324;2022-08-18T05:14:01;20.50;99.90
22436;DHT22;11385;50.822;4.324;2022-08-18T05:16:28;20.20;99.90
22436;DHT22;11385;50.822;4.324;2022-08-18T05:18:58;20.30;99.90
22436;DHT22;11385;50.822;4.324;2022-08-18T05:21:27;20.10;99.90
22436;DHT22;11385;50.822;4.324;2022-08-18T05:23:54;19.90;99.90
22436;DHT22;11385;50.822;4.324;2022-08-18T05:26:20;20.10;99.90
22436;DHT22;11385;50.822;4.324;2022-08-18T05:28:48;20.00;99.90
22436;DHT22;11385;50.822;4.324;2022-08-18T05:31:18;19.90;99.90
22436;DHT22;11385;50.822;4.324;2022-08-18T05:33:46;20.00;99.90
22436;DHT22;11385;50.822;4.324;2022-08-18T05:36:40;19.90;99.90
22436;DHT22;11385;50.822;4.324;2022-08-18T05:39:08;19.80;99.90
22436;DHT22;11385;50.822;4.324;2022-08-18T05:41:37;19.90;99.90
22436;DHT22;11385;50.822;4.324;2022-08-18T05:44:05;19.90;99.90
22436;DHT22;11385;50.822;4.324;2022-08-18T05:46:40;20.10;99.90
22436;DHT22;11385;50.822;4.324;2022-08-18T05:49:07;20.20;99.90
22436;DHT22;11385;50.822;4.324;2022-08-18T05:51:42;20.20;99.90
22436;DHT22;11385;50.822;4.324;2022-08-18T05:54:11;20.10;99.90
22436;DHT22;11385;50.822;4.324;2022-08-18T05:56:44;20.00;99.90
22436;DHT22;11385;50.822;4.324;2022-08-18T05:59:17;20.10;99.90
22436;DHT22;11385;50.822;4.324;2022-08-18T06:01:44;19.90;99.90
22436;DHT22;11385;50.822;4.324;2022-08-18T06:04:30;19.90;99.90
22436;DHT22;11385;50.822;4.324;2022-08-18T06:07:00;20.00;99.90
22436;DHT22;11385;50.822;4.324;2022-08-18T06:09:35;20.00;99.90
22436;DHT22;11385;50.822;4.324;2022-08-18T06:12:08;19.80;99.90
22436;DHT22;11385;50.822;4.324;2022-08-18T06:14:37;19.80;99.90
22436;DHT22;11385;50.822;4.324;2022-08-18T06:17:11;19.80;99.90
22436;DHT22;11385;50.822;4.324;2022-08-18T06:19:44;19.90;99.90
22436;DHT22;11385;50.822;4.324;2022-08-18T06:22:16;20.10;99.90
22436;DHT22;11385;50.822;4.324;2022-08-18T06:25:03;20.00;99.90
22436;DHT22;11385;50.822;4.324;2022-08-18T06:27:35;19.70;99.90
22436;DHT22;11385;50.822;4.324;2022-08-18T06:30:09;19.70;99.90
22436;DHT22;11385;50.822;4.324;2022-08-18T06:33:13;19.90;99.90
22436;DHT22;11385;50.822;4.324;2022-08-18T06:35:45;20.10;99.90
22436;DHT22;11385;50.822;4.324;2022-08-18T06:41:19;20.20;99.90
22436;DHT22;11385;50.822;4.324;2022-08-18T06:43:53;20.40;99.90
22436;DHT22;11385;50.822;4.324;2022-08-18T06:46:18;20.50;99.90
22436;DHT22;11385;50.822;4.324;2022-08-18T06:48:52;20.40;99.90
22436;DHT22;11385;50.822;4.324;2022-08-18T06:51:20;20.40;99.90
22436;DHT22;11385;50.822;4.324;2022-08-18T06:54:06;20.40;99.90
22436;DHT22;11385;50.822;4.324;2022-08-18T06:56:45;20.40;99.90
22436;DHT22;11385;50.822;4.324;2022-08-18T06:59:27;20.50;99.90
22436;DHT22;11385;50.822;4.324;2022-08-18T07:01:55;20.50;99.90
22436;DHT22;11385;50.822;4.324;2022-08-18T07:04:43;20.60;99.90
22436;DHT22;11385;50.822;4.324;2022-08-18T07:07:19;20.60;99.90
22436;DHT22;11385;50.822;4.324;2022-08-18T07:09:47;20.70;99.90
22436;DHT22;11385;50.822;4.324;2022-08-18T07:12:19;20.80;99.90
22436;DHT22;11385;50.822;4.324;2022-08-18T07:14:50;20.80;99.90
22436;DHT22;11385;50.822;4.324;2022-08-18T07:17:23;20.90;99.90
22436;DHT22;11385;50.822;4.324;2022-08-18T07:19:56;21.00;99.90
22436;DHT22;11385;50.822;4.324;2022-08-18T07:22:23;21.10;99.90
22436;DHT22;11385;50.822;4.324;2022-08-18T07:24:52;21.10;99.90
22436;DHT22;11385;50.822;4.324;2022-08-18T07:27:22;21.30;99.90
22436;DHT22;11385;50.822;4.324;2022-08-18T07:29:58;21.50;99.90
22436;DHT22;11385;50.822;4.324;2022-08-18T07:32:31;21.50;99.90
22436;DHT22;11385;50.822;4.324;2022-08-18T07:35:01;21.70;99.90
22436;DHT22;11385;50.822;4.324;2022-08-18T07:37:31;21.90;99.90
22436;DHT22;11385;50.822;4.324;2022-08-18T07:40:03;21.90;99.90
22436;DHT22;11385;50.822;4.324;2022-08-18T07:42:38;22.20;99.90
22436;DHT22;11385;50.822;4.324;2022-08-18T07:45:10;22.20;99.90
22436;DHT22;11385;50.822;4.324;2022-08-18T07:47:44;22.20;99.90
22436;DHT22;11385;50.822;4.324;2022-08-18T07:50:10;22.50;99.90
22436;DHT22;11385;50.822;4.324;2022-08-18T07:52:40;22.50;99.90
22436;DHT22;11385;50.822;4.324;2022-08-18T07:55:24;22.30;99.90
22436;DHT22;11385;50.822;4.324;2022-08-18T07:57:55;22.40;99.90
22436;DHT22;11385;50.822;4.324;2022-08-18T08:00:28;22.00;99.90
22436;DHT22;11385;50.822;4.324;2022-08-18T08:02:59;22.20;99.90
22436;DHT22;11385;50.822;4.324;2022-08-18T08:05:47;22.40;99.90
22436;DHT22;11385;50.822;4.324;2022-08-18T08:08:54;22.70;99.90
22436;DHT22;11385;50.822;4.324;2022-08-18T08:11:29;22.80;99.90
22436;DHT22;11385;50.822;4.324;2022-08-18T08:13:58;23.10;99.90
22436;DHT22;11385;50.822;4.324;2022-08-18T08:16:44;23.30;99.90
22436;DHT22;11385;50.822;4.324;2022-08-18T08:21:56;23.50;99.90
22436;DHT22;11385;50.822;4.324;2022-08-18T08:24:33;23.70;99.90
22436;DHT22;11385;50.822;4.324;2022-08-18T08:27:14;23.90;99.90
22436;DHT22;11385;50.822;4.324;2022-08-18T08:29:48;24.10;99.90
22436;DHT22;11385;50.822;4.324;2022-08-18T08:32:27;24.20;99.90
22436;DHT22;11385;50.822;4.324;2022-08-18T08:34:56;24.40;99.90
22436;DHT22;11385;50.822;4.324;2022-08-18T08:37:28;24.50;99.90
22436;DHT22;11385;50.822;4.324;2022-08-18T08:39:58;24.70;99.90
22436;DHT22;11385;50.822;4.324;2022-08-18T08:42:40;24.80;99.90
22436;DHT22;11385;50.822;4.324;2022-08-18T08:45:16;25.00;99.90
22436;DHT22;11385;50.822;4.324;2022-08-18T08:47:50;25.20;99.90
22436;DHT22;11385;50.822;4.324;2022-08-18T08:50:15;25.30;99.90
22436;DHT22;11385;50.822;4.324;2022-08-18T08:55:40;25.00;99.90
22436;DHT22;11385;50.822;4.324;2022-08-18T08:58:21;24.80;99.90
22436;DHT22;11385;50.822;4.324;2022-08-18T09:00:49;24.40;99.90
22436;DHT22;11385;50.822;4.324;2022-08-18T09:03:23;24.40;99.90
22436;DHT22;11385;50.822;4.324;2022-08-18T09:05:59;24.40;99.90
22436;DHT22;11385;50.822;4.324;2022-08-18T09:08:37;24.60;99.90
22436;DHT22;11385;50.822;4.324;2022-08-18T09:11:44;24.60;99.90
22436;DHT22;11385;50.822;4.324;2022-08-18T09:13:59;24.10;99.90
22436;DHT22;11385;50.822;4.324;2022-08-18T09:16:44;23.90;99.90
22436;DHT22;11385;50.822;4.324;2022-08-18T09:21:59;24.10;99.90
22436;DHT22;11385;50.822;4.324;2022-08-18T09:24:29;24.40;99.90
22436;DHT22;11385;50.822;4.324;2022-08-18T09:29:53;24.40;99.90
22436;DHT22;11385;50.822;4.324;2022-08-18T09:32:55;24.10;99.90
22436;DHT22;11385;50.822;4.324;2022-08-18T09:35:32;24.10;99.90
22436;DHT22;11385;50.822;4.324;2022-08-18T09:38:07;24.30;99.90
22436;DHT22;11385;50.822;4.324;2022-08-18T09:40:34;24.50;99.90
22436;DHT22;11385;50.822;4.324;2022-08-18T09:43:12;25.20;99.90
22436;DHT22;11385;50.822;4.324;2022-08-18T09:45:52;24.90;99.90
22436;DHT22;11385;50.822;4.324;2022-08-18T09:48:30;25.20;99.90
22436;DHT22;11385;50.822;4.324;2022-08-18T09:54:06;25.70;99.90
22436;DHT22;11385;50.822;4.324;2022-08-18T09:59:01;25.90;99.90
22436;DHT22;11385;50.822;4.324;2022-08-18T10:01:34;26.20;99.90
22436;DHT22;11385;50.822;4.324;2022-08-18T10:07:12;26.80;99.90
22436;DHT22;11385;50.822;4.324;2022-08-18T10:09:56;27.20;99.90
22436;DHT22;11385;50.822;4.324;2022-08-18T10:12:31;27.10;99.90
22436;DHT22;11385;50.822;4.324;2022-08-18T10:15:14;27.40;99.90
22436;DHT22;11385;50.822;4.324;2022-08-18T10:18:08;27.10;99.90
22436;DHT22;11385;50.822;4.324;2022-08-18T10:20:49;27.30;99.90
22436;DHT22;11385;50.822;4.324;2022-08-18T10:25:56;26.20;99.90
22436;DHT22;11385;50.822;4.324;2022-08-18T10:31:05;25.40;99.90
22436;DHT22;11385;50.822;4.324;2022-08-18T10:33:54;25.70;99.90
22436;DHT22;11385;50.822;4.324;2022-08-18T10:39:03;25.70;99.90
22436;DHT22;11385;50.822;4.324;2022-08-18T10:41:32;25.70;99.90
22436;DHT22;11385;50.822;4.324;2022-08-18T10:44:01;26.00;99.90
22436;DHT22;11385;50.822;4.324;2022-08-18T10:46:34;26.10;99.90
22436;DHT22;11385;50.822;4.324;2022-08-18T10:49:18;26.50;99.90
22436;DHT22;11385;50.822;4.324;2022-08-18T10:51:57;26.60;99.90
22436;DHT22;11385;50.822;4.324;2022-08-18T10:54:36;26.90;99.90
22436;DHT22;11385;50.822;4.324;2022-08-18T10:57:21;27.50;99.90
22436;DHT22;11385;50.822;4.324;2022-08-18T11:02:52;27.70;99.90
22436;DHT22;11385;50.822;4.324;2022-08-18T11:05:21;27.00;99.90
22436;DHT22;11385;50.822;4.324;2022-08-18T11:07:48;26.70;99.90
22436;DHT22;11385;50.822;4.324;2022-08-18T11:10:19;26.50;99.90
22436;DHT22;11385;50.822;4.324;2022-08-18T11:18:35;26.60;99.90
22436;DHT22;11385;50.822;4.324;2022-08-18T11:23:40;26.20;99.90
22436;DHT22;11385;50.822;4.324;2022-08-18T11:26:14;26.60;99.90
22436;DHT22;11385;50.822;4.324;2022-08-18T11:28:41;26.90;99.90
22436;DHT22;11385;50.822;4.324;2022-08-18T11:31:08;27.00;99.90
22436;DHT22;11385;50.822;4.324;2022-08-18T11:33:38;26.70;99.90
22436;DHT22;11385;50.822;4.324;2022-08-18T11:36:06;26.90;99.90
22436;DHT22;11385;50.822;4.324;2022-08-18T11:38:36;27.00;99.90
22436;DHT22;11385;50.822;4.324;2022-08-18T11:41:10;27.00;99.90
22436;DHT22;11385;50.822;4.324;2022-08-18T11:43:39;27.00;99.90
22436;DHT22;11385;50.822;4.324;2022-08-18T11:48:48;27.10;99.90
22436;DHT22;11385;50.822;4.324;2022-08-18T11:51:21;27.20;99.90
22436;DHT22;11385;50.822;4.324;2022-08-18T11:53:56;27.00;99.90
22436;DHT22;11385;50.822;4.324;2022-08-18T11:56:26;26.40;99.90
22436;DHT22;11385;50.822;4.324;2022-08-18T11:58:59;26.20;99.90
22436;DHT22;11385;50.822;4.324;2022-08-18T12:04:22;26.00;99.90
22436;DHT22;11385;50.822;4.324;2022-08-18T12:07:07;26.20;99.90
22436;DHT22;11385;50.822;4.324;2022-08-18T12:09:45;26.70;99.90
22436;DHT22;11385;50.822;4.324;2022-08-18T12:12:18;27.40;99.90
22436;DHT22;11385;50.822;4.324;2022-08-18T12:15:03;28.00;99.90
22436;DHT22;11385;50.822;4.324;2022-08-18T12:17:32;28.30;99.90
22436;DHT22;11385;50.822;4.324;2022-08-18T12:19:58;28.10;99.90
22436;DHT22;11385;50.822;4.324;2022-08-18T12:22:28;28.10;99.90
22436;DHT22;11385;50.822;4.324;2022-08-18T12:24:57;28.40;99.90
22436;DHT22;11385;50.822;4.324;2022-08-18T12:27:25;28.20;99.90
22436;DHT22;11385;50.822;4.324;2022-08-18T12:29:54;28.40;99.90
22436;DHT22;11385;50.822;4.324;2022-08-18T12:32:23;28.10;99.90
22436;DHT22;11385;50.822;4.324;2022-08-18T12:34:50;27.80;99.90
22436;DHT22;11385;50.822;4.324;2022-08-18T12:37:22;27.60;99.90
22436;DHT22;11385;50.822;4.324;2022-08-18T12:39:50;27.90;99.90
22436;DHT22;11385;50.822;4.324;2022-08-18T12:42:17;27.90;99.90
22436;DHT22;11385;50.822;4.324;2022-08-18T12:44:44;28.10;99.90
22436;DHT22;11385;50.822;4.324;2022-08-18T12:47:14;28.20;99.90
22436;DHT22;11385;50.822;4.324;2022-08-18T12:49:41;28.50;99.90
22436;DHT22;11385;50.822;4.324;2022-08-18T12:52:09;29.00;99.90
22436;DHT22;11385;50.822;4.324;2022-08-18T12:54:36;29.30;99.90
22436;DHT22;11385;50.822;4.324;2022-08-18T12:57:06;29.50;99.90
22436;DHT22;11385;50.822;4.324;2022-08-18T12:59:34;29.90;99.90
22436;DHT22;11385;50.822;4.324;2022-08-18T13:02:01;30.10;99.90
22436;DHT22;11385;50.822;4.324;2022-08-18T13:04:28;29.40;99.90
22436;DHT22;11385;50.822;4.324;2022-08-18T13:06:57;29.20;99.90
22436;DHT22;11385;50.822;4.324;2022-08-18T13:09:24;29.50;99.90
22436;DHT22;11385;50.822;4.324;2022-08-18T13:11:51;29.90;99.90
22436;DHT22;11385;50.822;4.324;2022-08-18T13:14:18;29.90;99.90
22436;DHT22;11385;50.822;4.324;2022-08-18T13:16:44;29.80;99.90
22436;DHT22;11385;50.822;4.324;2022-08-18T13:19:13;29.80;99.90
22436;DHT22;11385;50.822;4.324;2022-08-18T13:21:40;29.30;99.90
22436;DHT22;11385;50.822;4.324;2022-08-18T13:24:08;29.10;99.90
22436;DHT22;11385;50.822;4.324;2022-08-18T13:26:38;29.00;99.90
22436;DHT22;11385;50.822;4.324;2022-08-18T13:29:05;28.70;99.90
22436;DHT22;11385;50.822;4.324;2022-08-18T13:31:31;28.50;99.90
22436;DHT22;11385;50.822;4.324;2022-08-18T13:33:58;28.60;99.90
22436;DHT22;11385;50.822;4.324;2022-08-18T13:36:27;28.70;99.90
22436;DHT22;11385;50.822;4.324;2022-08-18T13:38:58;28.80;99.90
22436;DHT22;11385;50.822;4.324;2022-08-18T13:41:26;28.90;99.90
22436;DHT22;11385;50.822;4.324;2022-08-18T13:43:52;28.70;99.90
22436;DHT22;11385;50.822;4.324;2022-08-18T13:46:19;28.80;99.90
22436;DHT22;11385;50.822;4.324;2022-08-18T13:48:46;28.80;99.90
22436;DHT22;11385;50.822;4.324;2022-08-18T13:51:17;28.40;99.90
22436;DHT22;11385;50.822;4.324;2022-08-18T13:53:45;28.30;99.90
22436;DHT22;11385;50.822;4.324;2022-08-18T13:56:11;28.00;99.90
22436;DHT22;11385;50.822;4.324;2022-08-18T13:58:38;27.90;99.90
22436;DHT22;11385;50.822;4.324;2022-08-18T14:01:06;27.70;99.90
22436;DHT22;11385;50.822;4.324;2022-08-18T14:03:34;27.70;99.90
22436;DHT22;11385;50.822;4.324;2022-08-18T14:06:01;27.90;99.90
22436;DHT22;11385;50.822;4.324;2022-08-18T14:08:29;27.80;99.90
22436;DHT22;11385;50.822;4.324;2022-08-18T14:10:58;27.80;99.90
22436;DHT22;11385;50.822;4.324;2022-08-18T14:13:27;27.60;99.90
22436;DHT22;11385;50.822;4.324;2022-08-18T14:15:55;27.60;99.90
22436;DHT22;11385;50.822;4.324;2022-08-18T14:18:24;27.40;99.90
22436;DHT22;11385;50.822;4.324;2022-08-18T14:20:52;27.50;99.90
22436;DHT22;11385;50.822;4.324;2022-08-18T14:23:24;27.90;99.90
22436;DHT22;11385;50.822;4.324;2022-08-18T14:25:57;28.20;99.90
22436;DHT22;11385;50.822;4.324;2022-08-18T14:28:30;28.70;99.90
22436;DHT22;11385;50.822;4.324;2022-08-18T14:30:58;29.10;99.90
22436;DHT22;11385;50.822;4.324;2022-08-18T14:33:27;29.10;99.90
22436;DHT22;11385;50.822;4.324;2022-08-18T14:35:55;29.20;99.90
22436;DHT22;11385;50.822;4.324;2022-08-18T14:38:22;29.50;99.90
22436;DHT22;11385;50.822;4.324;2022-08-18T14:40:49;29.50;99.90
22436;DHT22;11385;50.822;4.324;2022-08-18T14:43:17;29.50;99.90
22436;DHT22;11385;50.822;4.324;2022-08-18T14:45:46;29.70;99.90
22436;DHT22;11385;50.822;4.324;2022-08-18T14:48:15;29.90;99.90
22436;DHT22;11385;50.822;4.324;2022-08-18T14:50:46;29.80;99.90
22436;DHT22;11385;50.822;4.324;2022-08-18T14:53:17;29.50;99.90
22436;DHT22;11385;50.822;4.324;2022-08-18T14:55:46;29.30;99.90
22436;DHT22;11385;50.822;4.324;2022-08-18T14:58:13;29.20;99.90
22436;DHT22;11385;50.822;4.324;2022-08-18T15:00:41;28.90;99.90
22436;DHT22;11385;50.822;4.324;2022-08-18T15:03:07;28.40;99.90
22436;DHT22;11385;50.822;4.324;2022-08-18T15:05:35;28.30;99.90
22436;DHT22;11385;50.822;4.324;2022-08-18T15:08:02;28.30;99.90
22436;DHT22;11385;50.822;4.324;2022-08-18T15:10:31;28.40;99.90
22436;DHT22;11385;50.822;4.324;2022-08-18T15:12:58;28.60;99.90
22436;DHT22;11385;50.822;4.324;2022-08-18T15:15:26;28.60;99.90
22436;DHT22;11385;50.822;4.324;2022-08-18T15:17:52;28.60;99.90
22436;DHT22;11385;50.822;4.324;2022-08-18T15:20:22;28.70;99.90
22436;DHT22;11385;50.822;4.324;2022-08-18T15:22:49;28.70;99.90
22436;DHT22;11385;50.822;4.324;2022-08-18T15:25:21;29.10;99.90
22436;DHT22;11385;50.822;4.324;2022-08-18T15:27:53;28.90;99.90
22436;DHT22;11385;50.822;4.324;2022-08-18T15:30:21;29.00;99.90
22436;DHT22;11385;50.822;4.324;2022-08-18T15:32:48;29.60;99.90
22436;DHT22;11385;50.822;4.324;2022-08-18T15:35:16;29.60;99.90
22436;DHT22;11385;50.822;4.324;2022-08-18T15:37:46;29.50;99.90
22436;DHT22;11385;50.822;4.324;2022-08-18T15:40:17;29.40;99.90
22436;DHT22;11385;50.822;4.324;2022-08-18T15:42:48;29.60;99.90
22436;DHT22;11385;50.822;4.324;2022-08-18T15:45:19;29.50;99.90
22436;DHT22;11385;50.822;4.324;2022-08-18T15:47:46;29.90;99.90
22436;DHT22;11385;50.822;4.324;2022-08-18T15:50:14;29.90;99.90
22436;DHT22;11385;50.822;4.324;2022-08-18T15:52:48;30.40;99.90
22436;DHT22;11385;50.822;4.324;2022-08-18T15:55:17;30.40;99.90
22436;DHT22;11385;50.822;4.324;2022-08-18T15:57:45;29.60;99.90
22436;DHT22;11385;50.822;4.324;2022-08-18T16:00:14;29.50;99.90
22436;DHT22;11385;50.822;4.324;2022-08-18T16:02:47;29.20;99.90
22436;DHT22;11385;50.822;4.324;2022-08-18T16:05:15;29.30;99.90
22436;DHT22;11385;50.822;4.324;2022-08-18T16:07:42;29.40;99.90
22436;DHT22;11385;50.822;4.324;2022-08-18T16:10:11;29.00;99.90
22436;DHT22;11385;50.822;4.324;2022-08-18T16:12:38;28.90;99.90
22436;DHT22;11385;50.822;4.324;2022-08-18T16:15:05;28.80;99.90
22436;DHT22;11385;50.822;4.324;2022-08-18T16:17:32;28.90;99.90
22436;DHT22;11385;50.822;4.324;2022-08-18T16:19:59;28.90;99.90
22436;DHT22;11385;50.822;4.324;2022-08-18T16:22:27;28.90;99.90
22436;DHT22;11385;50.822;4.324;2022-08-18T16:24:54;28.60;99.90
22436;DHT22;11385;50.822;4.324;2022-08-18T16:27:21;28.50;99.90
22436;DHT22;11385;50.822;4.324;2022-08-18T16:29:47;28.40;99.90
22436;DHT22;11385;50.822;4.324;2022-08-18T16:32:14;28.50;99.90
22436;DHT22;11385;50.822;4.324;2022-08-18T16:34:41;28.30;99.90
22436;DHT22;11385;50.822;4.324;2022-08-18T16:37:08;28.40;99.90
22436;DHT22;11385;50.822;4.324;2022-08-18T16:39:35;28.10;99.90